Time;durP1;ratioP1;P1;durP2;ratioP2;P2;SDS_P1;SDS_P2;PMS_P1;PMS_P2;Temp;Humidity;BMP_temperature;BMP_pressure;BME280_temperature;BME280_humidity;BME280_pressure;Samples;Min_cycle;Max_cycle;Signal;HPM_P1;HPM_P2
2022/01/14 00:01:55;;;;;;;44.47;27.23;;;;;;;0.10;67.37;101052.22;5084445;28;20235;-64
2022/01/14 00:04:22;;;;;;;48.80;28.37;;;;;;;-0.19;67.94;101049.19;5079288;28;20231;-65
2022/01/14 00:06:49;;;;;;;44.17;25.97;;;;;;;-0.08;68.46;101059.16;5078631;28;20613;-64
2022/01/14 00:09:17;;;;;;;45.33;28.30;;;;;;;0.18;66.98;101047.44;5077626;28;20234;-64
2022/01/14 00:11:51;;;;;;;43.77;28.63;;;;;;;1.56;63.59;101057.22;5085161;28;20227;-64
2022/01/14 00:14:39;;;;;;;46.80;26.77;;;;;;;0.36;65.30;101023.88;5085310;28;20235;-64
2022/01/14 00:17:11;;;;;;;44.40;27.93;;;;;;;1.45;63.27;101067.44;5080327;28;20257;-64
2022/01/14 00:19:39;;;;;;;44.80;29.47;;;;;;;2.21;61.33;101040.56;5082128;28;20243;-64
2022/01/14 00:22:11;;;;;;;51.10;30.20;;;;;;;2.46;59.96;101013.66;5081346;28;20708;-64
2022/01/14 00:33:16;;;;;;;52.17;32.30;;;;;;;0.14;66.04;101035.38;5080528;28;20227;-64
2022/01/14 00:35:44;;;;;;;55.07;31.77;;;;;;;0.52;66.59;101081.72;5081703;28;20223;-64
2022/01/14 00:38:13;;;;;;;55.60;32.00;;;;;;;0.55;66.09;101071.91;5084632;28;20227;-64
2022/01/14 00:40:40;;;;;;;50.23;32.40;;;;;;;-0.50;67.91;101019.09;5086236;28;20824;-64
2022/01/14 00:43:08;;;;;;;48.07;29.23;;;;;;;0.01;67.71;101071.00;5080734;28;20228;-64
2022/01/14 00:45:35;;;;;;;48.00;28.43;;;;;;;0.52;64.82;101037.94;5082018;28;20227;-64
2022/01/14 00:48:03;;;;;;;49.37;29.23;;;;;;;-0.31;66.47;101008.63;5083311;28;20226;-64
2022/01/14 00:50:31;;;;;;;48.40;28.87;;;;;;;-0.53;68.90;101066.41;5081675;28;20224;-64
2022/01/14 00:52:57;;;;;;;45.60;28.47;;;;;;;0.89;64.98;101069.41;5084461;28;21043;-64
2022/01/14 00:55:38;;;;;;;46.87;28.67;;;;;;;-1.00;68.10;100974.19;5075193;28;20229;-64
2022/01/14 01:00:51;;;;;;;47.00;28.87;;;;;;;-0.48;68.79;101069.66;5083746;28;20231;-64
2022/01/14 01:03:18;;;;;;;46.93;26.47;;;;;;;-1.36;70.91;101009.69;5080948;28;20789;-64
2022/01/14 01:05:45;;;;;;;45.67;26.30;;;;;;;-1.97;73.44;100952.88;5084156;28;20224;-64
2022/01/14 01:08:15;;;;;;;45.37;27.13;;;;;;;-1.51;73.36;101049.59;5081804;28;20231;-64
2022/01/14 01:10:48;;;;;;;41.87;26.20;;;;;;;0.22;68.14;101079.66;5084871;28;21848;-65
2022/01/14 01:13:22;;;;;;;44.83;27.67;;;;;;;-0.21;69.28;101081.63;5082829;28;20802;-64
2022/01/14 01:15:50;;;;;;;46.47;27.33;;;;;;;0.30;67.57;101074.03;5084532;28;20222;-64
2022/01/14 01:18:19;;;;;;;60.27;29.10;;;;;;;0.78;63.81;101006.91;5082591;28;20994;-65
2022/01/14 01:20:47;;;;;;;81.47;28.63;;;;;;;-0.84;68.30;100996.16;5085323;28;20235;-64
2022/01/14 01:23:15;;;;;;;249.13;32.70;;;;;;;1.41;63.84;101043.06;5084858;28;20256;-64
2022/01/14 01:25:48;;;;;;;76.80;28.47;;;;;;;0.26;65.69;101028.72;5085649;28;20234;-64
2022/01/14 01:28:15;;;;;;;82.07;28.70;;;;;;;-0.48;70.33;101090.66;5082239;28;20227;-64
2022/01/14 01:30:51;;;;;;;71.53;29.03;;;;;;;0.03;67.91;101074.41;5085441;28;20242;-62
2022/01/14 01:33:19;;;;;;;239.17;33.43;;;;;;;-2.15;73.90;100930.91;5086192;28;20232;-64
2022/01/14 01:35:47;;;;;;;278.43;31.87;;;;;;;0.45;68.39;101083.78;5086662;28;20904;-64
2022/01/14 01:38:16;;;;;;;177.47;30.53;;;;;;;0.10;67.93;101053.97;5085653;28;20241;-64
2022/01/14 01:40:46;;;;;;;137.83;28.20;;;;;;;-1.11;72.69;101067.13;5085529;28;20219;-64
2022/01/14 01:43:14;;;;;;;152.33;29.03;;;;;;;-0.55;69.83;101052.53;5085594;28;20707;-64
2022/01/14 01:45:44;;;;;;;232.10;30.53;;;;;;;-0.44;69.22;101065.16;5087406;28;20233;-64
2022/01/14 01:48:11;;;;;;;96.53;27.93;;;;;;;-0.65;68.83;101045.16;5085194;28;20227;-64
2022/01/14 01:50:38;;;;;;;185.07;28.10;;;;;;;-1.45;72.57;101028.41;5087106;28;20223;-64
2022/01/14 01:53:05;;;;;;;133.33;26.33;;;;;;;-0.37;69.14;101071.84;5083814;28;20228;-65
2022/01/14 01:55:33;;;;;;;150.47;26.30;;;;;;;-0.92;70.77;101061.13;5085584;28;20723;-64
2022/01/14 01:58:00;;;;;;;86.03;25.67;;;;;;;0.72;66.73;101060.56;5085578;28;20222;-64
2022/01/14 02:00:28;;;;;;;123.07;26.23;;;;;;;-0.59;70.73;101079.78;5086423;28;20219;-64
2022/01/14 02:02:57;;;;;;;165.83;25.93;;;;;;;0.40;66.68;101055.16;5086020;28;20227;-64
2022/01/14 02:05:25;;;;;;;150.90;28.30;;;;;;;0.19;66.32;101038.66;5087599;28;20226;-64
2022/01/14 02:07:52;;;;;;;224.47;29.90;;;;;;;-1.85;72.38;100962.00;5086487;28;20228;-63
2022/01/14 02:10:22;;;;;;;157.87;26.90;;;;;;;-1.48;76.00;101102.66;5087247;28;20223;-63
2022/01/14 02:12:51;;;;;;;171.30;26.23;;;;;;;-1.89;73.19;100976.97;5086824;28;20219;-66
2022/01/14 02:15:29;;;;;;;127.10;25.33;;;;;;;-1.59;74.98;101094.38;5087117;28;20231;-63
2022/01/14 02:23:15;;;;;;;175.17;26.80;;;;;;;-1.48;72.44;101013.66;5086453;28;20788;-65
2022/01/14 02:25:45;;;;;;;112.93;28.93;;;;;;;-1.27;73.39;101069.53;5086945;28;20711;-64
2022/01/14 02:28:16;;;;;;;191.53;30.67;;;;;;;-2.41;76.15;100989.44;5084897;28;20228;-65
2022/01/14 02:30:45;;;;;;;250.43;28.80;;;;;;;-2.91;77.64;100935.53;5085619;28;20231;-65
2022/01/14 02:33:14;;;;;;;275.40;30.00;;;;;;;-2.62;77.66;101010.22;5083915;28;20583;-65
2022/01/14 02:35:44;;;;;;;271.67;31.93;;;;;;;-2.37;75.52;101012.78;5085691;28;20241;-64
2022/01/14 02:38:14;;;;;;;149.20;27.13;;;;;;;-1.03;75.01;101098.28;5083997;28;20226;-65
2022/01/14 02:40:42;;;;;;;174.67;29.00;;;;;;;0.69;67.60;101020.50;5084837;28;20709;-65
2022/01/14 02:43:14;;;;;;;215.83;28.73;;;;;;;0.62;66.41;100999.81;5082907;28;20226;-64
2022/01/14 02:45:46;;;;;;;225.03;30.47;;;;;;;1.26;64.67;100983.41;5085362;28;20227;-65
2022/01/14 02:48:13;;;;;;;264.20;29.87;;;;;;;0.17;67.24;101008.16;5084188;28;20225;-64
2022/01/14 02:50:59;;;;;;;247.60;29.00;;;;;;;-2.53;75.53;100943.72;5085492;28;20623;-65
2022/01/14 02:54:21;;;;;;;368.13;32.23;;;;;;;-0.67;72.08;101061.78;5085208;28;20776;-65
2022/01/14 02:56:20;;;;;;;229.27;28.73;;;;;;;0.06;67.26;100992.91;5076202;28;20223;-64
2022/01/14 02:58:47;;;;;;;214.57;28.63;;;;;;;0.34;67.21;101004.72;5077118;28;20211;-64
2022/01/14 03:01:18;;;;;;;228.87;28.03;;;;;;;-2.83;76.25;100901.34;5087067;28;20229;-64
2022/01/14 03:03:45;;;;;;;268.80;28.23;;;;;;;-3.13;77.56;100875.44;5086298;28;20222;-65
2022/01/14 03:06:14;;;;;;;170.97;25.80;;;;;;;-3.04;78.01;100918.63;5086328;28;20226;-64
2022/01/14 03:08:43;;;;;;;195.90;26.30;;;;;;;-1.51;72.59;100999.84;5084463;28;20897;-64
2022/01/14 03:11:47;;;;;;;171.50;24.70;;;;;;;-1.04;72.46;101012.75;5084682;28;21627;-64
2022/01/14 03:14:23;;;;;;;251.67;28.47;;;;;;;-1.78;70.93;100940.75;5081787;28;20226;-64
2022/01/14 03:16:58;;;;;;;289.00;28.53;;;;;;;-2.23;74.33;100957.38;5083678;28;20233;-63
2022/01/14 03:19:26;;;;;;;162.80;24.73;;;;;;;-1.78;73.66;100997.44;5084683;28;20609;-64
2022/01/14 03:22:06;;;;;;;152.43;25.07;;;;;;;0.24;68.29;100978.06;5084982;28;20694;-64
2022/01/14 03:27:04;;;;;;;196.43;25.47;;;;;;;-2.53;75.00;100944.56;5085590;28;20246;-64
2022/01/14 03:29:31;;;;;;;149.10;25.70;;;;;;;-2.45;76.46;100985.22;5085771;28;20223;-64
2022/01/14 03:31:59;;;;;;;137.40;23.97;;;;;;;-1.80;72.44;100962.66;5086378;28;20228;-64
2022/01/14 03:34:26;;;;;;;141.60;24.10;;;;;;;-1.60;71.60;100970.53;5085727;28;20227;-64
2022/01/14 03:36:53;;;;;;;123.90;24.27;;;;;;;0.30;67.95;100951.50;5086125;28;20222;-65
2022/01/14 03:39:20;;;;;;;136.90;25.47;;;;;;;-0.34;66.24;100924.88;5085104;28;20730;-64
2022/01/14 03:41:47;;;;;;;115.87;25.17;;;;;;;0.25;68.29;100970.13;5086439;28;20224;-64
2022/01/14 03:44:15;;;;;;;120.53;25.77;;;;;;;1.44;64.23;100929.03;5085897;28;20227;-64
2022/01/14 03:46:42;;;;;;;151.60;25.70;;;;;;;1.80;62.32;100899.81;5090232;28;20227;-64
2022/01/14 03:49:10;;;;;;;151.53;27.17;;;;;;;1.46;63.32;100903.50;5087697;28;20227;-64
2022/01/14 03:51:37;;;;;;;199.73;28.63;;;;;;;0.85;65.07;100937.34;5088182;28;20241;-64
2022/01/14 03:54:04;;;;;;;208.40;29.03;;;;;;;0.93;63.74;100913.31;5088441;28;20229;-64
2022/01/14 03:56:32;;;;;;;169.00;28.23;;;;;;;1.26;64.13;100923.78;5088950;28;20233;-64
2022/01/14 03:58:59;;;;;;;114.67;28.87;;;;;;;0.96;65.50;100950.78;5089840;28;20221;-64
2022/01/14 04:01:25;;;;;;;216.77;30.80;;;;;;;0.66;64.95;100933.97;5089795;28;20243;-64
2022/01/14 04:03:52;;;;;;;269.73;31.73;;;;;;;1.47;63.87;100928.88;5089809;28;20226;-64
2022/01/14 04:06:19;;;;;;;153.77;30.00;;;;;;;1.34;63.39;100918.13;5089529;28;20223;-64
2022/01/14 04:08:46;;;;;;;176.13;30.30;;;;;;;1.46;63.81;100943.78;5088800;28;20229;-64
2022/01/14 04:11:13;;;;;;;168.33;32.20;;;;;;;0.71;66.38;100972.22;5090055;28;20238;-64
2022/01/14 04:13:51;;;;;;;210.03;32.17;;;;;;;0.76;66.36;100964.13;5089202;28;20229;-65
2022/01/14 04:16:20;;;;;;;149.30;29.23;;;;;;;1.28;64.48;100942.13;5087454;28;20220;-65
2022/01/14 04:18:51;;;;;;;95.47;30.17;;;;;;;1.18;64.86;100949.66;5088521;28;20223;-64
2022/01/14 04:21:19;;;;;;;139.33;30.30;;;;;;;1.41;64.21;100951.03;5089722;28;20227;-64
2022/01/14 04:23:46;;;;;;;94.63;29.20;;;;;;;0.75;65.49;100959.78;5088843;28;20231;-65
2022/01/14 04:26:14;;;;;;;152.97;30.20;;;;;;;1.26;64.63;100957.13;5089459;28;20739;-64
2022/01/14 04:28:41;;;;;;;184.50;32.30;;;;;;;-0.55;69.18;100966.03;5087660;28;20235;-64
2022/01/14 04:31:09;;;;;;;121.83;29.53;;;;;;;0.76;67.23;101003.53;5087328;28;20237;-63
2022/01/14 04:33:37;;;;;;;135.57;30.90;;;;;;;1.15;65.50;100981.38;5086484;28;20234;-64
2022/01/14 04:36:05;;;;;;;156.47;29.20;;;;;;;-1.86;72.19;100876.59;5086608;28;20225;-70
2022/01/14 04:38:33;;;;;;;160.87;31.10;;;;;;;-0.12;72.05;101042.72;5086446;28;20246;-69
2022/01/14 04:41:01;;;;;;;110.70;26.60;;;;;;;0.59;67.01;100980.72;5085293;28;20219;-70
2022/01/14 04:43:29;;;;;;;254.27;32.43;;;;;;;-0.21;69.48;101002.94;5085701;28;20224;-69
2022/01/14 04:48:29;;;;;;;103.90;29.67;;;;;;;0.55;68.40;100998.38;5086304;28;20215;-64
2022/01/14 04:50:56;;;;;;;97.73;29.90;;;;;;;1.11;65.46;100959.66;5083941;28;20249;-64
2022/01/14 04:53:25;;;;;;;123.00;31.00;;;;;;;0.18;67.93;100983.59;5085514;28;20219;-65
2022/01/14 04:55:54;;;;;;;91.47;29.13;;;;;;;0.61;67.48;100986.75;5086035;28;20246;-65
2022/01/14 04:58:25;;;;;;;69.67;24.97;;;;;;;0.96;65.14;100958.69;5086156;28;20224;-65
2022/01/14 05:00:52;;;;;;;99.97;25.77;;;;;;;-1.37;70.14;100924.22;5082280;28;20231;-71
2022/01/14 05:03:20;;;;;;;117.87;27.03;;;;;;;-1.48;75.43;101036.38;5066930;28;20215;-70
2022/01/14 05:05:50;;;;;;;114.10;26.87;;;;;;;0.62;66.52;100970.03;5086461;28;20224;-65
2022/01/14 05:08:27;;;;;;;57.87;23.83;;;;;;;0.63;65.97;100959.47;5086611;28;20227;-66
2022/01/14 05:13:25;;;;;;;86.10;26.43;;;;;;;0.62;65.82;100973.53;5083978;28;20230;-65
2022/01/14 05:15:54;;;;;;;85.00;27.17;;;;;;;0.41;66.29;100991.22;5079382;28;20233;-65
2022/01/14 05:18:22;;;;;;;111.50;26.10;;;;;;;-2.09;71.63;100867.06;5082941;28;20243;-66
2022/01/14 05:20:53;;;;;;;108.53;26.83;;;;;;;-0.36;67.42;100963.38;5085283;28;20227;-65
2022/01/14 05:23:20;;;;;;;76.73;25.63;;;;;;;0.73;65.80;100988.75;5084690;28;20773;-66
2022/01/14 05:25:47;;;;;;;105.27;26.50;;;;;;;-0.36;68.22;100976.50;5077460;28;20219;-65
2022/01/14 05:28:15;;;;;;;152.03;28.73;;;;;;;-0.64;68.36;100968.22;5083082;28;20225;-65
2022/01/14 05:30:42;;;;;;;88.73;28.43;;;;;;;0.38;67.35;101004.47;5084738;28;20235;-65
2022/01/14 05:33:09;;;;;;;138.17;28.17;;;;;;;0.29;66.82;100973.44;5085929;28;20218;-65
2022/01/14 05:35:36;;;;;;;72.53;29.17;;;;;;;0.19;67.01;100972.19;5086495;28;20230;-66
2022/01/14 05:38:03;;;;;;;90.93;27.70;;;;;;;0.51;66.21;100981.09;5086048;28;20229;-65
2022/01/14 05:40:30;;;;;;;86.60;27.07;;;;;;;0.50;67.07;100989.91;5087586;28;20226;-66
2022/01/14 05:42:59;;;;;;;112.77;27.70;;;;;;;0.54;66.71;100980.97;5085190;28;20229;-66
2022/01/14 05:45:26;;;;;;;190.80;30.80;;;;;;;0.42;66.48;100971.91;5085587;28;20249;-65
2022/01/14 05:47:54;;;;;;;120.63;26.97;;;;;;;-0.36;69.93;101012.38;5086202;28;20227;-65
2022/01/14 05:50:23;;;;;;;159.00;28.50;;;;;;;-0.05;68.96;100996.06;5084777;28;20221;-66
2022/01/14 05:52:50;;;;;;;101.93;26.80;;;;;;;0.03;68.68;101011.44;5084697;28;20227;-65
2022/01/14 05:55:19;;;;;;;184.57;31.43;;;;;;;0.19;67.84;100985.31;5085143;28;20228;-65
2022/01/14 05:57:45;;;;;;;264.33;33.37;;;;;;;0.50;68.48;101003.03;5086033;28;20234;-65
2022/01/14 06:00:16;;;;;;;118.03;30.57;;;;;;;0.35;66.99;100967.91;5085372;28;20229;-65
2022/01/14 06:02:45;;;;;;;98.17;28.87;;;;;;;0.32;66.84;100968.06;5084945;28;20221;-66
2022/01/14 06:05:12;;;;;;;78.60;27.40;;;;;;;0.90;66.00;100972.13;5085010;28;20807;-66
2022/01/14 06:07:39;;;;;;;82.73;28.57;;;;;;;0.45;67.14;100966.53;5084379;28;20239;-66
2022/01/14 06:10:07;;;;;;;116.93;30.10;;;;;;;-0.98;72.29;100993.28;5076985;28;20839;-65
2022/01/14 06:12:34;;;;;;;115.17;27.73;;;;;;;0.00;68.76;100978.34;5083910;28;20704;-66
2022/01/14 06:15:01;;;;;;;117.23;28.47;;;;;;;0.95;66.43;100977.16;5085784;28;20215;-66
2022/01/14 06:17:28;;;;;;;92.60;29.13;;;;;;;-1.11;71.16;100944.03;5086705;28;20260;-66
2022/01/14 06:19:55;;;;;;;92.40;28.33;;;;;;;0.89;66.57;100966.94;5086647;28;20578;-66
2022/01/14 06:22:22;;;;;;;88.97;28.80;;;;;;;1.31;64.28;100939.31;5087116;28;20389;-65
2022/01/14 06:24:49;;;;;;;101.93;29.53;;;;;;;0.93;65.75;100937.81;5085808;28;20227;-66
2022/01/14 06:27:17;;;;;;;71.27;28.87;;;;;;;0.76;66.27;100953.63;5085640;28;20237;-66
2022/01/14 06:29:44;;;;;;;112.53;29.73;;;;;;;-0.57;71.97;101007.19;5086295;28;20229;-66
2022/01/14 06:32:11;;;;;;;136.30;28.83;;;;;;;-1.72;75.50;100986.75;5086669;28;20218;-66
2022/01/14 06:34:38;;;;;;;139.17;29.37;;;;;;;0.02;69.17;100981.72;5085971;28;20607;-66
2022/01/14 06:37:05;;;;;;;174.00;30.30;;;;;;;-1.88;72.87;100894.94;5086318;28;20238;-66
2022/01/14 06:39:32;;;;;;;96.40;29.60;;;;;;;-0.48;73.53;101012.00;5086220;28;20223;-66
2022/01/14 06:41:59;;;;;;;79.63;29.23;;;;;;;1.02;66.65;100957.50;5086838;28;20229;-65
2022/01/14 06:44:26;;;;;;;124.27;31.90;;;;;;;-0.62;68.96;100935.78;5086322;28;20215;-66
2022/01/14 06:46:53;;;;;;;94.60;28.93;;;;;;;-0.01;69.05;100974.00;5085605;28;20237;-66
2022/01/14 06:49:20;;;;;;;131.80;29.93;;;;;;;-1.47;73.45;100949.06;5086471;28;20231;-65
2022/01/14 06:51:47;;;;;;;95.00;30.20;;;;;;;0.16;70.41;100980.22;5078098;28;20221;-66
2022/01/14 06:54:14;;;;;;;107.03;31.90;;;;;;;1.16;65.85;100936.59;5085986;28;20228;-66
2022/01/14 06:56:41;;;;;;;89.33;30.23;;;;;;;0.92;65.34;100914.25;5086117;28;20757;-66
2022/01/14 06:59:12;;;;;;;104.70;29.80;;;;;;;0.56;67.55;100944.13;5074468;28;20229;-65
2022/01/14 07:01:39;;;;;;;70.60;30.03;;;;;;;0.76;66.91;100954.44;5085713;28;20726;-65
2022/01/14 07:04:06;;;;;;;135.93;30.20;;;;;;;0.03;68.76;100959.81;5085986;28;20219;-66
2022/01/14 07:06:33;;;;;;;85.00;30.67;;;;;;;0.60;67.77;100966.66;5084656;28;20220;-65
2022/01/14 07:09:00;;;;;;;110.27;30.60;;;;;;;1.37;65.37;100958.25;5085382;28;20236;-65
2022/01/14 07:11:34;;;;;;;79.87;29.23;;;;;;;0.81;66.29;100941.94;5086224;28;20230;-66
2022/01/14 07:14:06;;;;;;;123.97;30.93;;;;;;;0.35;67.20;100944.28;5085137;28;20220;-65
2022/01/14 07:16:33;;;;;;;132.87;33.33;;;;;;;0.03;69.45;100985.19;5086090;28;20677;-66
2022/01/14 07:19:02;;;;;;;63.87;28.17;;;;;;;1.28;65.51;100961.38;5086619;28;20234;-66
2022/01/14 07:21:30;;;;;;;85.63;29.67;;;;;;;1.28;64.96;100953.50;5090343;28;20722;-65
2022/01/14 07:23:57;;;;;;;120.17;30.40;;;;;;;1.79;63.44;100952.56;5089536;28;20216;-66
2022/01/14 07:26:24;;;;;;;134.97;29.97;;;;;;;1.38;64.82;100962.59;5089913;28;20223;-66
2022/01/14 07:28:51;;;;;;;121.67;31.30;;;;;;;0.88;66.53;100974.00;5089528;28;20230;-66
2022/01/14 07:31:17;;;;;;;116.03;28.03;;;;;;;0.78;66.58;100986.72;5090009;28;20225;-65
2022/01/14 07:33:44;;;;;;;85.67;29.50;;;;;;;1.35;64.49;100968.00;5089417;28;20255;-65
2022/01/14 07:36:11;;;;;;;94.10;31.17;;;;;;;0.68;65.22;100950.53;5089314;28;20226;-65
2022/01/14 07:38:38;;;;;;;116.47;31.20;;;;;;;0.03;69.75;101016.69;5089284;28;20225;-66
2022/01/14 07:41:06;;;;;;;112.37;30.57;;;;;;;0.95;66.07;100985.88;5088787;28;20229;-66
2022/01/14 07:43:35;;;;;;;165.20;31.13;;;;;;;1.32;65.02;100983.09;5089608;28;20223;-66
2022/01/14 07:46:04;;;;;;;101.07;30.80;;;;;;;1.80;63.36;100984.00;5089687;28;20216;-65
2022/01/14 07:48:31;;;;;;;100.07;30.47;;;;;;;0.59;67.00;100993.88;5089789;28;20240;-66
2022/01/14 07:50:58;;;;;;;98.77;29.13;;;;;;;1.00;65.82;100978.59;5089075;28;20241;-66
2022/01/14 07:53:25;;;;;;;103.00;30.97;;;;;;;1.65;64.22;100995.38;5088814;28;20298;-65
2022/01/14 07:55:52;;;;;;;66.93;29.80;;;;;;;1.88;62.69;100984.44;5089681;28;20603;-66
2022/01/14 07:58:19;;;;;;;71.27;28.57;;;;;;;-0.93;70.69;100996.56;5089495;28;20238;-66
2022/01/14 08:00:51;;;;;;;107.27;29.80;;;;;;;-0.64;71.80;101046.81;5087932;28;20272;-65
2022/01/14 08:03:18;;;;;;;77.70;28.43;;;;;;;-0.80;70.71;101013.44;5089015;28;20227;-66
2022/01/14 08:05:46;;;;;;;100.77;30.30;;;;;;;-0.07;71.41;101055.63;5089626;28;20318;-66
2022/01/14 08:08:13;;;;;;;125.30;30.40;;;;;;;0.25;69.60;101032.25;5088929;28;20246;-66
2022/01/14 08:10:40;;;;;;;86.50;30.17;;;;;;;0.60;67.08;100999.00;5088597;28;20720;-66
2022/01/14 08:13:07;;;;;;;137.43;30.80;;;;;;;0.34;68.26;101018.69;5087515;28;20737;-65
2022/01/14 08:15:34;;;;;;;70.03;29.97;;;;;;;0.84;66.24;100993.44;5086627;28;20258;-65
2022/01/14 08:18:02;;;;;;;148.33;31.90;;;;;;;0.42;67.36;101002.53;5088763;28;20225;-66
2022/01/14 08:20:29;;;;;;;91.40;32.10;;;;;;;1.33;65.44;101006.69;5088812;28;20224;-65
2022/01/14 08:22:58;;;;;;;116.40;30.43;;;;;;;0.87;67.09;101016.09;5088037;28;20604;-66
2022/01/14 08:25:26;;;;;;;98.00;31.07;;;;;;;0.92;66.05;101000.94;5088303;28;20317;-66
2022/01/14 08:27:54;;;;;;;101.30;31.50;;;;;;;0.76;66.16;100998.25;5087472;28;20228;-67
2022/01/14 08:30:21;;;;;;;95.07;31.00;;;;;;;0.50;67.16;101005.66;5086894;28;20229;-66
2022/01/14 08:32:48;;;;;;;120.40;34.83;;;;;;;0.90;66.28;100994.94;5080330;28;20225;-66
2022/01/14 08:35:14;;;;;;;99.63;31.37;;;;;;;-0.44;71.57;101053.81;5088854;28;20227;-65
2022/01/14 08:37:42;;;;;;;106.87;32.77;;;;;;;0.25;69.07;101038.38;5089256;28;20239;-66
2022/01/14 08:40:10;;;;;;;88.03;30.50;;;;;;;0.83;67.09;101021.50;5088701;28;20226;-65
2022/01/14 08:42:37;;;;;;;103.13;33.10;;;;;;;0.89;66.16;101007.22;5088892;28;20226;-66
2022/01/14 08:45:05;;;;;;;87.77;31.60;;;;;;;1.14;66.03;101012.03;5088480;28;20267;-64
2022/01/14 08:47:32;;;;;;;144.73;38.33;;;;;;;1.25;65.04;101000.97;5088155;28;20223;-66
2022/01/14 08:49:59;;;;;;;105.43;38.13;;;;;;;1.28;65.61;101013.09;5088474;28;20611;-66
2022/01/14 08:52:27;;;;;;;96.97;32.67;;;;;;;0.72;67.08;101010.69;5088474;28;20220;-66
2022/01/14 08:54:54;;;;;;;91.90;33.70;;;;;;;1.47;64.30;100991.97;5087972;28;20237;-66
2022/01/14 08:57:23;;;;;;;140.17;34.37;;;;;;;-1.84;73.30;100913.97;5088294;28;20226;-66
2022/01/14 08:59:51;;;;;;;125.03;34.70;;;;;;;-2.22;77.46;100979.97;5088484;28;20231;-66
2022/01/14 09:02:18;;;;;;;131.50;34.03;;;;;;;-2.39;78.25;100969.34;5088120;28;20227;-66
2022/01/14 09:04:45;;;;;;;125.73;32.73;;;;;;;-1.32;74.16;101026.13;5087787;28;20222;-66
2022/01/14 09:07:12;;;;;;;135.73;32.80;;;;;;;-1.61;75.67;101028.16;5087274;28;20241;-66
2022/01/14 09:09:39;;;;;;;141.27;35.77;;;;;;;-1.95;76.83;101019.03;5086610;28;20248;-66
2022/01/14 09:12:08;;;;;;;191.00;34.57;;;;;;;-2.56;77.74;100936.00;5088632;28;20218;-66
2022/01/14 09:14:35;;;;;;;134.57;34.03;;;;;;;-2.76;79.86;100978.53;5088108;28;20725;-66
2022/01/14 09:17:03;;;;;;;180.10;35.63;;;;;;;-1.85;76.94;101032.63;5087836;28;20229;-65
2022/01/14 09:19:30;;;;;;;105.30;34.37;;;;;;;-1.52;77.60;101066.19;5088223;28;20229;-65
2022/01/14 09:21:57;;;;;;;135.67;33.37;;;;;;;-1.18;74.14;101033.38;5088121;28;20282;-67
2022/01/14 09:24:45;;;;;;;161.27;32.93;;;;;;;-1.63;76.59;101043.06;5087178;28;20226;-66
2022/01/14 09:27:13;;;;;;;165.40;34.33;;;;;;;-2.50;77.78;100967.09;5086982;28;20591;-66
2022/01/14 09:29:40;;;;;;;114.60;31.53;;;;;;;-1.24;73.72;101016.19;5086216;28;20277;-65
2022/01/14 09:32:08;;;;;;;102.13;31.40;;;;;;;-0.00;71.29;101016.81;5087826;28;20221;-66
2022/01/14 09:34:37;;;;;;;93.20;31.07;;;;;;;0.25;69.46;100982.38;5087559;28;20229;-66
2022/01/14 09:37:04;;;;;;;95.80;30.43;;;;;;;0.51;68.46;100975.00;5087213;28;20228;-65
2022/01/14 09:39:33;;;;;;;163.73;33.70;;;;;;;0.33;67.96;100972.34;5087886;28;20223;-66
2022/01/14 09:42:01;;;;;;;228.40;34.93;;;;;;;0.26;67.89;100969.19;5086413;28;20725;-65
2022/01/14 09:44:28;;;;;;;81.10;30.07;;;;;;;0.50;67.88;100983.81;5087237;28;20724;-66
2022/01/14 09:46:55;;;;;;;112.43;33.30;;;;;;;0.83;66.55;100970.75;5086941;28;20231;-65
2022/01/14 09:49:22;;;;;;;154.63;32.50;;;;;;;1.05;66.46;100973.09;5087724;28;20602;-66
2022/01/14 09:51:49;;;;;;;137.77;37.30;;;;;;;1.28;65.55;100974.53;5087409;28;20225;-65
2022/01/14 09:54:16;;;;;;;205.53;37.00;;;;;;;0.87;67.28;100987.19;5087175;28;20218;-66
2022/01/14 09:56:45;;;;;;;128.17;33.50;;;;;;;-0.09;68.82;100985.78;5087306;28;20234;-66
2022/01/14 09:59:12;;;;;;;140.57;34.70;;;;;;;1.26;67.51;101014.97;5086619;28;20774;-65
2022/01/14 10:01:42;;;;;;;113.70;33.10;;;;;;;0.90;67.38;100997.56;5087452;28;20226;-65
2022/01/14 10:04:19;;;;;;;115.20;31.67;;;;;;;0.92;66.79;100988.66;5086806;28;20711;-66
2022/01/14 10:06:53;;;;;;;91.03;34.13;;;;;;;1.86;64.85;101011.78;5078256;28;20542;-66
2022/01/14 10:09:42;;;;;;;161.23;33.63;;;;;;;0.56;67.15;100992.22;5087490;28;20227;-65
2022/01/14 10:12:13;;;;;;;97.70;31.80;;;;;;;0.11;69.71;101035.53;5087340;28;20229;-66
2022/01/14 10:14:43;;;;;;;101.07;31.47;;;;;;;0.98;67.01;101009.38;5086406;28;20231;-65
2022/01/14 10:17:11;;;;;;;108.47;33.63;;;;;;;0.77;67.79;101018.34;5086146;28;20922;-66
2022/01/14 10:19:44;;;;;;;290.50;35.00;;;;;;;0.03;68.96;101006.19;5086884;28;20237;-65
2022/01/14 10:22:25;;;;;;;132.67;33.97;;;;;;;1.02;68.44;101021.41;5087338;28;20233;-65
2022/01/14 10:25:20;;;;;;;221.37;34.70;;;;;;;-1.65;75.46;101026.59;5086182;28;20242;-65
2022/01/14 10:27:53;;;;;;;185.87;34.50;;;;;;;0.43;72.06;101049.72;5086323;28;20232;-65
2022/01/14 10:30:28;;;;;;;85.77;31.03;;;;;;;1.33;67.94;101013.69;5085497;28;20229;-65
2022/01/14 10:33:01;;;;;;;123.67;33.73;;;;;;;1.61;65.38;100978.91;5079348;28;20331;-65
2022/01/14 10:35:33;;;;;;;108.83;31.37;;;;;;;1.50;65.76;100982.16;5087007;28;20321;-65
2022/01/14 10:38:04;;;;;;;180.97;34.07;;;;;;;1.55;65.32;100976.66;5086440;28;20231;-65
2022/01/14 10:40:35;;;;;;;168.10;34.10;;;;;;;0.52;69.68;101021.31;5086877;28;20218;-65
2022/01/14 10:43:08;;;;;;;101.17;31.63;;;;;;;0.30;70.99;101038.13;5085659;28;20247;-65
2022/01/14 10:45:53;;;;;;;130.37;34.27;;;;;;;-1.53;74.91;100986.00;5086891;28;20595;-65
2022/01/14 10:48:31;;;;;;;134.20;33.70;;;;;;;-1.93;77.25;100996.28;5086602;28;20705;-65
2022/01/14 10:51:16;;;;;;;132.33;32.80;;;;;;;-1.69;75.85;100981.41;5086250;28;20712;-66
2022/01/14 10:53:49;;;;;;;71.80;33.10;;;;;;;-0.99;74.19;101013.41;5085854;28;20732;-65
2022/01/14 10:56:27;;;;;;;120.63;30.10;;;;;;;-0.77;76.41;101060.47;5086364;28;20277;-65
2022/01/14 10:58:58;;;;;;;151.23;31.90;;;;;;;0.52;70.16;100979.31;5083960;28;20233;-65
2022/01/14 11:04:01;;;;;;;148.93;37.60;;;;;;;-1.89;76.17;100994.41;5108368;27;20302;-65
2022/01/14 11:06:37;;;;;;;124.00;35.20;;;;;;;-2.04;77.67;100988.88;5082927;28;20241;-65
2022/01/14 11:09:12;;;;;;;82.57;31.03;;;;;;;-0.14;74.37;100988.63;5077508;28;20236;-65
2022/01/14 11:11:48;;;;;;;78.40;31.83;;;;;;;-2.42;78.31;100983.34;5083859;28;20230;-65
2022/01/14 11:14:16;;;;;;;91.77;32.33;;;;;;;-0.59;75.34;101000.28;5083873;28;20740;-65
2022/01/14 11:16:44;;;;;;;106.00;31.03;;;;;;;-1.95;80.82;101036.50;5083293;28;20231;-66
2022/01/14 11:19:13;;;;;;;151.50;32.80;;;;;;;-2.87;80.97;100951.94;5082984;28;20398;-66
2022/01/14 11:24:30;;;;;;;110.33;33.63;;;;;;;-1.32;74.11;100940.56;5083222;28;20219;-65
2022/01/14 11:27:05;;;;;;;144.87;36.87;;;;;;;-2.42;77.28;100919.78;5081543;28;20223;-65
2022/01/14 11:29:37;;;;;;;134.07;38.50;;;;;;;-1.41;78.74;101020.34;5081648;28;20222;-65
2022/01/14 11:32:05;;;;;;;134.90;38.03;;;;;;;-1.37;74.65;100946.94;5082647;28;20225;-65
2022/01/14 11:34:37;;;;;;;94.20;36.67;;;;;;;0.63;70.88;100914.81;5082654;28;20231;-65
2022/01/14 11:37:08;;;;;;;120.63;37.07;;;;;;;0.47;69.82;100884.19;5082270;28;20239;-65
2022/01/14 11:39:38;;;;;;;173.87;35.83;;;;;;;-1.20;75.21;100946.19;5082890;28;20231;-65
2022/01/14 11:42:14;;;;;;;166.70;36.47;;;;;;;0.16;70.86;100898.88;5083119;28;20220;-65
2022/01/14 11:44:41;;;;;;;80.50;34.53;;;;;;;0.69;69.34;100861.16;5082556;28;20236;-65
2022/01/14 11:47:39;;;;;;;93.30;34.57;;;;;;;-0.80;74.94;100941.84;5082868;28;20235;-65
2022/01/14 11:50:27;;;;;;;202.77;36.87;;;;;;;-1.98;76.78;100906.72;5077200;28;20219;-65